ADDS METAR Data INFO
IDs: Format: Raw Decoded Include TAF

Data at: 0546 UTC 22 Nov 2017

KPYX 220535Z AUTO 05003KT 10SM CLR 01/M05 A3038 RMK AO2 T00101046
KPYX 220515Z AUTO 08003KT 10SM CLR 01/M04 A3038 RMK AO2 T00101045
KPYX 220455Z AUTO 11004KT 10SM CLR 01/M04 A3037 RMK AO2 T00131045
KPYX 220435Z AUTO 08004KT 10SM CLR 02/M04 A3038 RMK AO2 T00221044
KPYX 220415Z AUTO 08005KT 10SM CLR 02/M05 A3037 RMK AO2 T00181047
KPYX 220355Z AUTO 06007KT 10SM CLR 03/M04 A3036 RMK AO2 T00301042
KPYX 220335Z AUTO 06008KT 10SM CLR 03/M04 A3037 RMK AO2 T00261039
KPYX 220315Z AUTO 03005KT 10SM CLR 01/M04 A3037 RMK AO2 T00121042
KPYX 220255Z AUTO 04006KT 10SM CLR 03/M04 A3037 RMK AO2 T00251036
KPYX 220235Z AUTO 04006KT 10SM CLR 03/M03 A3037 RMK AO2 T00311034
KPYX 220215Z AUTO 04005KT 10SM CLR 04/M03 A3037 RMK AO2 T00391032
KPYX 220155Z AUTO 03005KT 10SM CLR 04/M03 A3036 RMK AO2 T00431031
KPYX 220135Z AUTO 01007KT 10SM CLR 05/M03 A3035 RMK AO2 T00481034
KPYX 220115Z AUTO 05009KT 10SM CLR 06/M03 A3032 RMK AO2 T00591030
KPYX 220055Z AUTO 03007KT 10SM CLR 06/M03 A3033 RMK AO2 T00621028
KPYX 220035Z AUTO 02006KT 10SM CLR 07/M03 A3032 RMK AO2 T00661027
KPYX 220015Z AUTO 01006KT 10SM CLR 07/M03 A3032 RMK AO2 T00721030
KPYX 212355Z AUTO 02007KT 10SM CLR 09/M03 A3030 RMK AO2 T00881026 10165 20088
KPYX 212335Z AUTO 02008KT 10SM CLR 10/M02 A3029 RMK AO2 T00991025
KPYX 212315Z AUTO 02011KT 10SM CLR 11/M02 A3030 RMK AO2 T01111025
KPYX 212255Z AUTO 02011KT 10SM CLR 12/M03 A3028 RMK AO2 T01181026
KPYX 212235Z AUTO 01015G20KT 10SM CLR 12/M03 A3027 RMK AO2 T01231027
KPYX 212215Z AUTO 03017G20KT 10SM CLR 13/M03 A3027 RMK AO2 T01271026
KPYX 212155Z AUTO 02016G24KT 10SM CLR 13/M03 A3026 RMK AO2 T01311026
KPYX 212135Z AUTO 02016G21KT 10SM CLR 13/M02 A3025 RMK AO2 T01311023
KPYX 212115Z AUTO 02018G25KT 10SM CLR 13/M02 A3025 RMK AO2 T01321025
KPYX 212055Z AUTO 02020G27KT 10SM CLR 14/M03 A3023 RMK AO2 T01371026
KPYX 212035Z AUTO 03017G24KT 10SM CLR 14/M03 A3022 RMK AO2 T01361028
KPYX 212015Z AUTO 03018G22KT 10SM CLR 14/M03 A3021 RMK AO2 T01361035
KPYX 211955Z AUTO 02018G27KT 10SM CLR 14/M03 A3019 RMK AO2 T01401035
KPYX 211935Z AUTO 01023G28KT 10SM CLR 14/M04 A3018 RMK AO2 T01421036
KPYX 211915Z AUTO 02019G28KT 10SM CLR 14/M04 A3018 RMK AO2 T01441040
KPYX 211855Z AUTO 02019G26KT 10SM CLR 15/M04 A3016 RMK AO2 T01501040
KPYX 211835Z AUTO 03020G27KT 10SM CLR 16/M04 A3015 RMK AO2 T01551040
KPYX 211815Z AUTO 03020G28KT 10SM CLR 16/M04 A3014 RMK AO2 T01561038
KPYX 211755Z AUTO 01022G30KT 10SM CLR 16/M03 A3013 RMK AO2 T01611031 10179 20040
KPYX 211735Z AUTO 02021G29KT 10SM CLR 17/M02 A3012 RMK AO2 T01701020
KPYX 211715Z AUTO 01022G32KT 10SM CLR 16/M02 A3011 RMK AO2 T01631023
KPYX 211655Z AUTO 36020G28KT 10SM CLR 18/M04 A3009 RMK AO2 T01751040
KPYX 211635Z AUTO 35013KT 10SM CLR 15/M04 A3008 RMK AO2 T01531043
KPYX 211615Z AUTO 35010KT 10SM CLR 13/M04 A3007 RMK AO2 T01311044
KPYX 211555Z AUTO 36011G18KT 10SM CLR 13/M04 A3006 RMK AO2 T01251044
KPYX 211535Z AUTO 36015G20KT 10SM CLR 12/M04 A3004 RMK AO2 T01231042
KPYX 211515Z AUTO 36014KT 10SM CLR 11/M04 A3003 RMK AO2 T01061045
KPYX 211455Z AUTO 36017G23KT 10SM CLR 09/M05 A3002 RMK AO2 T00941047
KPYX 211435Z AUTO 36017KT 10SM CLR 09/M05 A2999 RMK AO2 T00851049
KPYX 211415Z AUTO 36014G18KT 10SM CLR 08/M05 A2997 RMK AO2 T00771050
KPYX 211355Z AUTO 34011KT 10SM CLR 07/M05 A2995 RMK AO2 T00671055
KPYX 211335Z AUTO 34010KT 10SM CLR 05/M05 A2994 RMK AO2 T00511055
KPYX 211315Z AUTO 36006KT 10SM CLR 04/M06 A2992 RMK AO2 T00401056
KPYX 211255Z AUTO 35008KT 10SM CLR 05/M06 A2990 RMK AO2 T00531057
KPYX 211235Z AUTO 34009KT 10SM CLR 05/M06 A2988 RMK AO2 T00461058
KPYX 211215Z AUTO 34008KT 10SM CLR 05/M06 A2986 RMK AO2 T00491060
KPYX 211155Z AUTO 35008KT 10SM CLR 05/M06 A2986 RMK AO2 T00461062 10050 20007
KPYX 211135Z AUTO 35009KT 10SM CLR 05/M06 A2984 RMK AO2 T00501065
KPYX 211115Z AUTO 34008KT 10SM CLR 03/M07 A2984 RMK AO2 T00341066
KPYX 211055Z AUTO 33006KT 10SM CLR 03/M06 A2983 RMK AO2 T00321065
KPYX 211035Z AUTO 32007KT 10SM CLR 04/M07 A2982 RMK AO2 T00421067
KPYX 211015Z AUTO 34008KT 10SM CLR 05/M07 A2981 RMK AO2 T00481070
KPYX 210955Z AUTO 35008KT 10SM CLR 03/M06 A2979 RMK AO2 T00301064
KPYX 210935Z AUTO 32008KT 10SM CLR 02/M05 A2980 RMK AO2 T00161055
KPYX 210915Z AUTO 31006KT 10SM CLR 02/M05 A2978 RMK AO2 T00211055
KPYX 210855Z AUTO 29006KT 10SM CLR 01/M05 A2978 RMK AO2 T00141055
KPYX 210835Z AUTO 30004KT 10SM CLR 01/M05 A2978 RMK AO2 T00091055
KPYX 210815Z AUTO 33005KT 10SM CLR 01/M06 A2978 RMK AO2 T00101060
KPYX 210755Z AUTO 34006KT 10SM CLR 01/M06 A2979 RMK AO2 T00141057
KPYX 210735Z AUTO 31006KT 10SM CLR 01/M05 A2978 RMK AO2 T00111054
KPYX 210715Z AUTO 31007KT 10SM CLR 01/M06 A2978 RMK AO2 T00141058
KPYX 210655Z AUTO 27004KT 10SM CLR 02/M06 A2977 RMK AO2 T00161057
KPYX 210635Z AUTO 31005KT 10SM CLR 02/M05 A2979 RMK AO2 T00181053
KPYX 210615Z AUTO 27003KT 10SM CLR 02/M06 A2979 RMK AO2 T00211061
KPYX 210555Z AUTO 24006KT 10SM CLR 03/M06 A2979 RMK AO2 T00271058 10108 20012 401970010
KPYX 210535Z AUTO 24005KT 10SM CLR 02/M06 A2979 RMK AO2 T00191064
KPYX 210515Z AUTO 21007KT 10SM CLR 02/M06 A2978 RMK AO2 T00201059
KPYX 210455Z AUTO 20007KT 10SM CLR 01/M06 A2978 RMK AO2 T00131062
KPYX 210435Z AUTO 20008KT 10SM CLR 02/M06 A2978 RMK AO2 T00191056
KPYX 210415Z AUTO 19006KT 10SM CLR 02/M06 A2977 RMK AO2 T00181059
KPYX 210355Z AUTO 18006KT 10SM CLR 02/M06 A2979 RMK AO2 T00241058
KPYX 210335Z AUTO 18007KT 10SM CLR 02/M06 A2979 RMK AO2 T00231060
KPYX 210315Z AUTO 18006KT 10SM CLR 02/M06 A2979 RMK AO2 T00201065
KPYX 210255Z AUTO 18005KT 10SM CLR 03/M06 A2979 RMK AO2 T00331060
KPYX 210235Z AUTO 19006KT 10SM CLR 04/M06 A2980 RMK AO2 T00391059
KPYX 210215Z AUTO 17006KT 10SM CLR 04/M06 A2979 RMK AO2 T00391060
KPYX 210155Z AUTO 18006KT 10SM CLR 05/M06 A2979 RMK AO2 T00501057
KPYX 210135Z AUTO 18007KT 10SM CLR 06/M05 A2979 RMK AO2 T00631055
KPYX 210115Z AUTO 18007KT 10SM CLR 08/M05 A2979 RMK AO2 T00751055
KPYX 210055Z AUTO 17008KT 10SM CLR 08/M06 A2979 RMK AO2 T00761058
KPYX 210035Z AUTO 17008KT 10SM CLR 08/M06 A2979 RMK AO2 T00761065
KPYX 210015Z AUTO 16008KT 10SM CLR 09/M06 A2978 RMK AO2 T00911063
KPYX 202355Z AUTO 16008KT 10SM CLR 11/M06 A2978 RMK AO2 T01121061 10197 20111
KPYX 202335Z AUTO 16007KT 10SM CLR 12/M07 A2978 RMK AO2 T01161070
KPYX 202315Z AUTO 17007KT 10SM CLR 15/M08 A2979 RMK AO2 T01521078
KPYX 202255Z AUTO 18006KT 10SM CLR 18/M08 A2978 RMK AO2 T01751084
KPYX 202235Z AUTO 19007KT 10SM CLR 18/M09 A2978 RMK AO2 T01821089
KPYX 202215Z AUTO 19009KT 10SM CLR 18/M09 A2978 RMK AO2 T01841086
KPYX 202155Z AUTO 18007KT 10SM CLR 19/M07 A2978 RMK AO2 T01851074
KPYX 202135Z AUTO 19009KT 10SM CLR 19/M07 A2979 RMK AO2 T01851068
KPYX 202115Z AUTO 19008KT 10SM CLR 19/M06 A2979 RMK AO2 T01881062
KPYX 202055Z AUTO 18008KT 10SM CLR 19/M06 A2979 RMK AO2 T01901059
KPYX 202035Z AUTO 19008KT 10SM CLR 20/M06 A2980 RMK AO2 T01971060
KPYX 202015Z AUTO 20005KT 10SM CLR 19/M06 A2980 RMK AO2 T01921063
KPYX 201955Z AUTO 23006KT 10SM CLR 19/M07 A2982 RMK AO2 T01881073
KPYX 201935Z AUTO 24006KT 10SM CLR 19/M07 A2982 RMK AO2 T01851069
KPYX 201915Z AUTO 24006KT 10SM CLR 18/M08 A2983 RMK AO2 T01811077
KPYX 201855Z AUTO 23007KT 10SM CLR 18/M07 A2983 RMK AO2 T01781068
KPYX 201835Z AUTO 24007KT 10SM CLR 18/M06 A2984 RMK AO2 T01771063
KPYX 201815Z AUTO 24008KT 10SM CLR 17/M07 A2985 RMK AO2 T01701067
KPYX 201755Z AUTO 24009KT 10SM CLR 17/M06 A2986 RMK AO2 T01661065 10166 20010